Map

Track Data

SID SEASON NUMBER BASIN SUBBASIN NAME ISO_TIME NATURE LAT LON WMO_WIND WMO_PRES WMO_AGENCY TRACK_TYPE DIST2LAND LANDFALL IFLAG USA_AGENCY USA_ATCF_ID USA_LAT USA_LON USA_RECORD USA_STATUS USA_WIND USA_PRES USA_SSHS USA_R34_NE USA_R34_SE USA_R34_SW USA_R34_NW USA_R50_NE USA_R50_SE USA_R50_SW USA_R50_NW USA_R64_NE USA_R64_SE USA_R64_SW USA_R64_NW USA_POCI USA_ROCI USA_RMW USA_EYE TOKYO_LAT TOKYO_LON TOKYO_GRADE TOKYO_WIND TOKYO_PRES TOKYO_R50_DIR TOKYO_R50_LONG TOKYO_R50_SHORT TOKYO_R30_DIR TOKYO_R30_LONG TOKYO_R30_SHORT TOKYO_LAND CMA_LAT CMA_LON CMA_CAT CMA_WIND CMA_PRES HKO_LAT HKO_LON HKO_CAT HKO_WIND HKO_PRES NEWDELHI_LAT NEWDELHI_LON NEWDELHI_GRADE NEWDELHI_WIND NEWDELHI_PRES NEWDELHI_CI NEWDELHI_DP NEWDELHI_POCI REUNION_LAT REUNION_LON REUNION_TYPE REUNION_WIND REUNION_PRES REUNION_TNUM REUNION_CI REUNION_RMW REUNION_R34_NE REUNION_R34_SE REUNION_R34_SW REUNION_R34_NW REUNION_R50_NE REUNION_R50_SE REUNION_R50_SW REUNION_R50_NW REUNION_R64_NE REUNION_R64_SE REUNION_R64_SW REUNION_R64_NW BOM_LAT BOM_LON BOM_TYPE BOM_WIND BOM_PRES BOM_TNUM BOM_CI BOM_RMW BOM_R34_NE BOM_R34_SE BOM_R34_SW BOM_R34_NW BOM_R50_NE BOM_R50_SE BOM_R50_SW BOM_R50_NW BOM_R64_NE BOM_R64_SE BOM_R64_SW BOM_R64_NW BOM_ROCI BOM_POCI BOM_EYE BOM_POS_METHOD BOM_PRES_METHOD NADI_LAT NADI_LON NADI_CAT NADI_WIND NADI_PRES WELLINGTON_LAT WELLINGTON_LON WELLINGTON_WIND WELLINGTON_PRES DS824_LAT DS824_LON DS824_STAGE DS824_WIND DS824_PRES TD9636_LAT TD9636_LON TD9636_STAGE TD9636_WIND TD9636_PRES TD9635_LAT TD9635_LON TD9635_WIND TD9635_PRES TD9635_ROCI NEUMANN_LAT NEUMANN_LON NEUMANN_CLASS NEUMANN_WIND NEUMANN_PRES MLC_LAT MLC_LON MLC_CLASS MLC_WIND MLC_PRES USA_GUST BOM_GUST BOM_GUST_PER REUNION_GUST REUNION_GUST_PER USA_SEAHGT USA_SEARAD_NE USA_SEARAD_SE USA_SEARAD_SW USA_SEARAD_NW STORM_SPEED STORM_DIR
1969265N34289 1969 85 NA NA NOT_NAMED 1969-09-21 12:00:00 SS 34.0000 -71.0000 30 1010 hurdat_atl main 455 455 O_____________ hurdat_atl AL211969 34.0000 -71.0000 SD 30 1010 -2 4 76
1969265N34289 1969 85 NA NA NOT_NAMED 1969-09-21 15:00:00 SS 34.0501 -70.7501 main 467 467 P_____________ AL211969 34.0501 -70.7501 SD 32 1009 -2 4 76
1969265N34289 1969 85 NA NA NOT_NAMED 1969-09-21 18:00:00 SS 34.1000 -70.5000 35 hurdat_atl main 492 492 I_____________ hurdat_atl AL211969 34.1000 -70.5000 SS 35 1008 -2 4 76
1969265N34289 1969 85 NA NA NOT_NAMED 1969-09-21 21:00:00 SS 34.1499 -70.2500 main 517 513 P_____________ AL211969 34.1499 -70.2500 SS 37 1007 -2 4 76
1969265N34289 1969 85 NA NA NOT_NAMED 1969-09-22 00:00:00 SS 34.2000 -70.0000 40 1007 hurdat_atl main 530 530 O_____________ hurdat_atl AL211969 34.2000 -70.0000 SS 40 1007 -2 4 77
1969265N34289 1969 85 NA NA NOT_NAMED 1969-09-22 03:00:00 SS 34.2425 -69.7499 main 556 552 P_____________ AL211969 34.2425 -69.7499 SS 42 1005 -2 4 76
1969265N34289 1969 85 NA NA NOT_NAMED 1969-09-22 06:00:00 SS 34.3000 -69.5000 45 hurdat_atl main 569 569 I_____________ hurdat_atl AL211969 34.3000 -69.5000 SS 45 1004 -2 4 70
1969265N34289 1969 85 NA NA NOT_NAMED 1969-09-22 09:00:00 SS 34.3924 -69.2500 main 583 583 P_____________ AL211969 34.3924 -69.2500 SS 45 1003 -2 5 64
1969265N34289 1969 85 NA NA NOT_NAMED 1969-09-22 12:00:00 SS 34.5000 -69.0000 45 1002 hurdat_atl main 607 607 O_____________ hurdat_atl AL211969 34.5000 -69.0000 SS 45 1002 -2 5 64
1969265N34289 1969 85 NA NA NOT_NAMED 1969-09-22 15:00:00 SS 34.5924 -68.7499 main 630 630 P_____________ AL211969 34.5924 -68.7499 SS 47 1000 -2 5 64
1969265N34289 1969 85 NA NA NOT_NAMED 1969-09-22 18:00:00 SS 34.7000 -68.5000 50 hurdat_atl main 645 645 I_____________ hurdat_atl AL211969 34.7000 -68.5000 SS 50 998 -2 5 58
1969265N34289 1969 85 NA NA NOT_NAMED 1969-09-22 21:00:00 SS 34.8500 -68.2500 main 661 661 P_____________ AL211969 34.8500 -68.2500 SS 50 996 -2 5 54
1969265N34289 1969 85 NA NA NOT_NAMED 1969-09-23 00:00:00 SS 35.0000 -68.0000 50 995 hurdat_atl main 683 683 O_____________ hurdat_atl AL211969 35.0000 -68.0000 SS 50 995 -2 5 59
1969265N34289 1969 85 NA NA NOT_NAMED 1969-09-23 03:00:00 SS 35.0999 -67.7498 main 709 709 P_____________ AL211969 35.0999 -67.7498 SS 50 994 -2 5 64
1969265N34289 1969 85 NA NA NOT_NAMED 1969-09-23 06:00:00 SS 35.2000 -67.5000 50 hurdat_atl main 725 725 I_____________ hurdat_atl AL211969 35.2000 -67.5000 SS 50 993 -2 5 61
1969265N34289 1969 85 NA NA NOT_NAMED 1969-09-23 09:00:00 SS 35.3351 -67.2276 main 751 734 P_____________ AL211969 35.3351 -67.2276 SS 52 992 -2 5 54
1969265N34289 1969 85 NA NA NOT_NAMED 1969-09-23 12:00:00 SS 35.5000 -67.0000 55 992 hurdat_atl main 737 719 O_____________ hurdat_atl AL211969 35.5000 -67.0000 SS 55 992 -2 5 38
1969265N34289 1969 85 NA NA NOT_NAMED 1969-09-23 15:00:00 SS 35.6924 -66.8848 main 719 702 P_____________ AL211969 35.6924 -66.8848 SS 55 991 -2 4 22
1969265N34289 1969 85 NA NA NOT_NAMED 1969-09-23 18:00:00 SS 35.9000 -66.8000 55 hurdat_atl main 702 685 I_____________ hurdat_atl AL211969 35.9000 -66.8000 SS 55 991 -2 5 25
1969265N34289 1969 85 NA NA NOT_NAMED 1969-09-23 21:00:00 SS 36.1000 -66.6500 main 685 672 P_____________ AL211969 36.1000 -66.6500 SS 57 990 -2 5 31
1969265N34289 1969 85 NA NA NOT_NAMED 1969-09-24 00:00:00 SS 36.3000 -66.5000 60 990 hurdat_atl main 672 656 O_____________ hurdat_atl AL211969 36.3000 -66.5000 SS 60 990 -2 5 26
1969265N34289 1969 85 NA NA NOT_NAMED 1969-09-24 03:00:00 SS 36.5074 -66.3999 main 656 640 P_____________ AL211969 36.5074 -66.3999 SS 60 989 -2 4 22
1969265N34289 1969 85 NA NA NOT_NAMED 1969-09-24 06:00:00 SS 36.7000 -66.3000 60 hurdat_atl main 640 631 I_____________ hurdat_atl AL211969 36.7000 -66.3000 SS 60 988 -2 4 30
1969265N34289 1969 85 NA NA NOT_NAMED 1969-09-24 09:00:00 SS 36.8425 -66.1574 main 635 625 P_____________ AL211969 36.8425 -66.1574 SS 62 987 -2 4 39
1969265N34289 1969 85 NA NA NOT_NAMED 1969-09-24 12:00:00 TS 37.0000 -66.0000 65 987 hurdat_atl main 625 611 O_____________ hurdat_atl AL211969 37.0000 -66.0000 HU 65 987 1 4 32
1969265N34289 1969 85 NA NA NOT_NAMED 1969-09-24 15:00:00 TS 37.1973 -65.8792 main 611 594 P_____________ AL211969 37.1973 -65.8792 HU 65 986 1 6 25
1969265N34289 1969 85 NA NA NOT_NAMED 1969-09-24 18:00:00 TS 37.5000 -65.7000 65 hurdat_atl main 594 570 I_____________ hurdat_atl AL211969 37.5000 -65.7000 HU 65 986 1 8 23
1969265N34289 1969 85 NA NA NOT_NAMED 1969-09-24 21:00:00 TS 37.9084 -65.4885 main 570 553 P_____________ AL211969 37.9084 -65.4885 HU 65 985 1 11 29
1969265N34289 1969 85 NA NA NOT_NAMED 1969-09-25 00:00:00 TS 38.5000 -65.0000 65 985 hurdat_atl main 553 487 O_____________ hurdat_atl AL211969 38.5000 -65.0000 HU 65 985 1 18 39
1969265N34289 1969 85 NA NA NOT_NAMED 1969-09-25 03:00:00 TS 39.2901 -64.0576 main 477 423 P_____________ AL211969 39.2901 -64.0576 HU 65 985 1 24 45
1969265N34289 1969 85 NA NA NOT_NAMED 1969-09-25 06:00:00 TS 40.2000 -62.8000 65 hurdat_atl main 421 403 I_____________ hurdat_atl AL211969 40.2000 -62.8000 HU 65 985 1 27 48
1969265N34289 1969 85 NA NA NOT_NAMED 1969-09-25 09:00:00 TS 41.1240 -61.3948 main 408 363 P_____________ AL211969 41.1240 -61.3948 HU 65 985 1 28 50
1969265N34289 1969 85 NA NA NOT_NAMED 1969-09-25 12:00:00 TS 42.0000 -60.0000 65 985 hurdat_atl main 366 324 O_____________ hurdat_atl AL211969 42.0000 -60.0000 HU 65 985 1 25 49
1969265N34289 1969 85 NA NA NOT_NAMED 1969-09-25 15:00:00 TS 42.7502 -58.8783 main 319 309 P_____________ AL211969 42.7502 -58.8783 HU 65 1 21 48
1969265N34289 1969 85 NA NA NOT_NAMED 1969-09-25 18:00:00 TS 43.4000 -57.9000 65 hurdat_atl main 314 310 O_____________ hurdat_atl AL211969 43.4000 -57.9000 HU 65 1 19 49
1969265N34289 1969 85 NA NA NOT_NAMED 1969-09-25 21:00:00 TS 43.9721 -56.9515 main 314 257 P_____________ AL211969 43.9721 -56.9515 HU 65 1 18 51
1969265N34289 1969 85 NA NA NOT_NAMED 1969-09-26 00:00:00 TS 44.5000 -56.0000 65 hurdat_atl main 256 O_____________ hurdat_atl AL211969 44.5000 -56.0000 HU 65 1 17 52

About IBTrACS Database

This database is a web-friendly format of International Best Track Archive for Climate Stewardship (IBTrACS), a global best track data archive curated by NOAA dating back to 1842.

Updated: 2021-12-06